| time (UTC) | temp F | wind direction | speed knots | gust knots | rain 1hr in | rain 24hr in | rain mn in | humidity % | barometer mb |
| 20260507130016 | 53 | 343 | 0.9 | 2.6 | 0.00 | 0.16 | 0.00 | 84 | 997.3 |
| 20260507124517 | 52 | 329 | 0.0 | 1.7 | 0.00 | 0.17 | 0.00 | 94 | 997.2 |
| 20260507123137 | 52 | 343 | 0.0 | 1.7 | 0.00 | 0.19 | 0.00 | 96 | 997.2 |
| 20260507121517 | 51 | 341 | 0.9 | 2.6 | 0.00 | 0.22 | 0.00 | 97 | 997.1 |
| 20260507120017 | 51 | 339 | 0.9 | 1.7 | 0.00 | 0.24 | 0.00 | 100 | 997.0 |
| 20260507114517 | 51 | 345 | 0.0 | 0.9 | 0.00 | 0.25 | 0.00 | 100 | 997.1 |
| 20260507113017 | 51 | 30 | 0.0 | 0.9 | 0.00 | 0.25 | 0.00 | 100 | 997.1 |
| 20260507111517 | 51 | 0.0 | 0.0 | 0.00 | 0.25 | 0.00 | 100 | 997.0 | |
| 20260507110017 | 51 | 313 | 0.0 | 0.0 | 0.00 | 0.25 | 0.00 | 100 | 996.8 |
| 20260507104538 | 51 | 321 | 0.0 | 0.9 | 0.00 | 0.25 | 0.00 | 100 | 996.6 |
| 20260507103037 | 51 | 327 | 0.0 | 0.9 | 0.00 | 0.25 | 0.00 | 100 | 996.5 |
| 20260507101517 | 51 | 330 | 0.0 | 1.7 | 0.00 | 0.25 | 0.00 | 100 | 996.3 |
| 20260507100017 | 51 | 330 | 0.0 | 0.9 | 0.00 | 0.25 | 0.00 | 100 | 996.0 |
| 20260507094517 | 51 | 324 | 0.9 | 2.6 | 0.00 | 0.25 | 0.00 | 100 | 996.0 |
| 20260507093018 | 51 | 326 | 0.9 | 1.7 | 0.00 | 0.25 | 0.00 | 100 | 996.1 |
| 20260507091518 | 51 | 338 | 0.9 | 1.7 | 0.00 | 0.25 | 0.00 | 100 | 996.1 |
| 20260507090021 | 51 | 334 | 0.9 | 1.7 | 0.00 | 0.25 | 0.00 | 100 | 995.9 |
| 20260507084521 | 52 | 344 | 0.9 | 1.7 | 0.00 | 0.25 | 0.00 | 100 | 995.8 |
| 20260507083058 | 52 | 329 | 0.9 | 2.6 | 0.00 | 0.25 | 0.00 | 100 | 995.7 |
| 20260507081516 | 52 | 332 | 0.9 | 1.7 | 0.00 | 0.25 | 0.00 | 100 | 995.4 |
| 20260507080017 | 52 | 321 | 0.9 | 3.5 | 0.00 | 0.25 | 0.00 | 100 | 995.4 |
| 20260507074517 | 52 | 329 | 0.9 | 2.6 | 0.00 | 0.25 | 0.00 | 100 | 995.4 |
| 20260507073017 | 52 | 331 | 0.9 | 1.7 | 0.00 | 0.25 | 0.00 | 100 | 995.3 |
| 20260507071517 | 52 | 338 | 0.0 | 1.7 | 0.00 | 0.25 | 0.00 | 100 | 995.4 |
| 20260507070016 | 53 | 349 | 0.9 | 3.5 | 0.00 | 0.25 | 0.00 | 100 | 995.8 |
| 20260507064516 | 53 | 332 | 0.9 | 3.5 | 0.00 | 0.25 | 0.00 | 100 | 995.5 |
| 20260507063017 | 54 | 337 | 0.9 | 3.5 | 0.00 | 0.25 | 0.00 | 100 | 995.7 |
| 20260507061517 | 54 | 326 | 0.9 | 2.6 | 0.00 | 0.25 | 0.00 | 100 | 995.8 |
| 20260507060017 | 54 | 334 | 0.9 | 2.6 | 0.00 | 0.25 | 0.00 | 100 | 995.6 |
| 20260507054517 | 55 | 333 | 0.9 | 2.6 | 0.00 | 0.25 | 0.00 | 100 | 995.5 |
| 20260507053017 | 55 | 341 | 1.7 | 3.5 | 0.00 | 0.25 | 0.00 | 100 | 995.5 |
| 20260507051517 | 55 | 339 | 0.9 | 1.7 | 0.00 | 0.25 | 0.00 | 100 | 995.5 |
| 20260507050039 | 55 | 347 | 0.9 | 1.7 | 0.00 | 0.25 | 0.00 | 100 | 995.4 |
| 20260507044537 | 55 | 322 | 0.0 | 0.9 | 0.00 | 0.25 | 0.00 | 100 | 995.8 |
| 20260507043038 | 55 | 333 | 0.9 | 1.7 | 0.01 | 0.25 | 0.00 | 100 | 995.4 |
| 20260507041518 | 56 | 348 | 0.9 | 1.7 | 0.01 | 0.25 | 0.00 | 100 | 995.0 |
| 20260507040037 | 56 | 357 | 0.9 | 3.5 | 0.01 | 0.25 | 0.00 | 100 | 995.1 |
| 20260507034516 | 56 | 339 | 0.9 | 4.3 | 0.01 | 0.25 | 0.25 | 100 | 995.1 |
| 20260507033036 | 57 | 341 | 0.9 | 3.5 | 0.00 | 0.24 | 0.24 | 100 | 994.8 |
| 20260507031516 | 58 | 338 | 0.9 | 2.6 | 0.00 | 0.24 | 0.24 | 100 | 994.8 |
| 20260507030017 | 58 | 331 | 0.9 | 2.6 | 0.00 | 0.24 | 0.24 | 100 | 994.8 |
| 20260507024537 | 58 | 343 | 0.9 | 3.5 | 0.00 | 0.24 | 0.24 | 100 | 994.6 |
| 20260507023017 | 58 | 351 | 0.9 | 3.5 | 0.00 | 0.24 | 0.24 | 100 | 994.7 |
| 20260507021517 | 59 | 355 | 0.9 | 1.7 | 0.00 | 0.24 | 0.24 | 100 | 994.6 |
| 20260507020018 | 59 | 334 | 0.9 | 2.6 | 0.00 | 0.24 | 0.24 | 100 | 994.6 |
| 20260507014522 | 60 | 340 | 0.9 | 4.3 | 0.00 | 0.24 | 0.24 | 100 | 994.3 |
| 20260507013020 | 61 | 342 | 0.0 | 3.5 | 0.00 | 0.24 | 0.24 | 100 | 994.5 |
| 20260507011517 | 62 | 359 | 0.9 | 5.2 | 0.01 | 0.24 | 0.24 | 100 | 994.7 |
| 20260507010017 | 62 | 347 | 0.9 | 5.2 | 0.01 | 0.24 | 0.24 | 100 | 994.5 |
| 20260507004517 | 62 | 352 | 0.0 | 1.7 | 0.01 | 0.24 | 0.24 | 100 | 994.4 |
| 20260507003017 | 63 | 198 | 0.0 | 0.9 | 0.02 | 0.24 | 0.24 | 100 | 994.2 |
| 20260507001517 | 63 | 38 | 0.0 | 1.7 | 0.01 | 0.23 | 0.23 | 100 | 994.0 |
| 20260507000017 | 64 | 38 | 0.0 | 0.9 | 0.01 | 0.23 | 0.23 | 100 | 993.8 |
| 20260506234517 | 65 | 5 | 0.9 | 2.6 | 0.01 | 0.23 | 0.23 | 100 | 993.4 |
| 20260506233017 | 67 | 11 | 0.0 | 0.9 | 0.00 | 0.22 | 0.22 | 100 | 993.2 |
| 20260506231517 | 67 | 66 | 0.9 | 1.7 | 0.00 | 0.22 | 0.22 | 100 | 993.0 |
| 20260506230017 | 68 | 51 | 0.0 | 1.7 | 0.00 | 0.22 | 0.22 | 100 | 993.0 |
| 20260506224516 | 68 | 49 | 0.9 | 3.5 | 0.00 | 0.22 | 0.22 | 100 | 993.1 |
| 20260506223041 | 68 | 51 | 0.9 | 3.5 | 0.00 | 0.22 | 0.22 | 100 | 993.0 |
| 20260506221517 | 68 | 72 | 0.9 | 3.5 | 0.00 | 0.22 | 0.22 | 100 | 992.9 |
| 20260506220017 | 67 | 64 | 0.9 | 3.5 | 0.00 | 0.22 | 0.22 | 100 | 993.1 |
| 20260506214516 | 67 | 58 | 0.9 | 3.5 | 0.00 | 0.22 | 0.22 | 100 | 993.0 |
| 20260506213017 | 67 | 61 | 0.9 | 1.7 | 0.00 | 0.22 | 0.22 | 100 | 992.8 |
| 20260506211517 | 67 | 65 | 0.9 | 1.7 | 0.00 | 0.22 | 0.22 | 100 | 992.7 |
| 20260506210017 | 67 | 47 | 0.9 | 3.5 | 0.00 | 0.22 | 0.22 | 100 | 992.5 |
| 20260506204517 | 67 | 65 | 0.9 | 2.6 | 0.00 | 0.22 | 0.22 | 100 | 992.4 |
| 20260506203016 | 67 | 305 | 0.0 | 1.7 | 0.00 | 0.22 | 0.22 | 100 | 992.6 |
| 20260506201517 | 67 | 24 | 0.9 | 2.6 | 0.00 | 0.22 | 0.22 | 100 | 992.7 |
| 20260506200017 | 67 | 49 | 0.9 | 4.3 | 0.00 | 0.22 | 0.22 | 100 | 992.7 |
| 20260506194537 | 68 | 54 | 1.7 | 5.2 | 0.00 | 0.22 | 0.22 | 100 | 992.7 |
| 20260506193017 | 69 | 3 | 0.9 | 3.5 | 0.00 | 0.22 | 0.22 | 100 | 992.7 |
| 20260506191537 | 67 | 45 | 0.9 | 3.5 | 0.00 | 0.22 | 0.22 | 100 | 992.7 |
| 20260506190018 | 67 | 45 | 1.7 | 6.1 | 0.00 | 0.22 | 0.22 | 100 | 992.9 |
| 20260506184517 | 67 | 49 | 1.7 | 6.1 | 0.00 | 0.22 | 0.22 | 100 | 993.1 |
| 20260506183017 | 66 | 39 | 1.7 | 7.0 | 0.00 | 0.22 | 0.22 | 100 | 993.1 |
| 20260506181519 | 65 | 46 | 1.7 | 7.0 | 0.00 | 0.22 | 0.22 | 100 | 993.1 |
| 20260506180016 | 65 | 48 | 2.6 | 11.3 | 0.00 | 0.22 | 0.22 | 100 | 993.3 |
| 20260506174516 | 64 | 57 | 1.7 | 5.2 | 0.00 | 0.22 | 0.22 | 100 | 993.3 |
| 20260506173016 | 64 | 51 | 2.6 | 7.0 | 0.00 | 0.22 | 0.22 | 100 | 993.2 |
| 20260506171517 | 63 | 50 | 2.6 | 7.8 | 0.00 | 0.22 | 0.22 | 100 | 993.3 |
| 20260506170017 | 62 | 53 | 2.6 | 7.8 | 0.00 | 0.22 | 0.22 | 100 | 993.3 |
| 20260506164516 | 61 | 39 | 2.6 | 7.8 | 0.00 | 0.22 | 0.22 | 100 | 993.2 |
| 20260506163016 | 61 | 49 | 2.6 | 7.8 | 0.00 | 0.22 | 0.22 | 100 | 993.3 |
| 20260506161517 | 60 | 47 | 2.6 | 9.6 | 0.00 | 0.22 | 0.22 | 100 | 993.3 |
| 20260506160016 | 60 | 51 | 2.6 | 7.0 | 0.00 | 0.22 | 0.22 | 100 | 993.5 |
| 20260506154517 | 61 | 61 | 2.6 | 7.0 | 0.00 | 0.22 | 0.22 | 100 | 993.4 |
| 20260506153017 | 60 | 60 | 2.6 | 10.4 | 0.04 | 0.22 | 0.22 | 100 | 993.3 |
| 20260506151517 | 60 | 51 | 3.5 | 9.6 | 0.05 | 0.22 | 0.22 | 100 | 993.5 |
| 20260506150037 | 59 | 63 | 2.6 | 6.1 | 0.06 | 0.22 | 0.22 | 100 | 993.7 |
| 20260506144537 | 59 | 79 | 3.5 | 7.8 | 0.07 | 0.22 | 0.22 | 100 | 994.0 |
| 20260506143017 | 60 | 73 | 3.5 | 9.6 | 0.05 | 0.18 | 0.18 | 100 | 994.0 |
| 20260506141517 | 60 | 86 | 2.6 | 7.8 | 0.06 | 0.17 | 0.17 | 100 | 993.7 |
| 20260506140017 | 60 | 72 | 2.6 | 8.7 | 0.07 | 0.16 | 0.16 | 100 | 993.9 |
| 20260506134517 | 60 | 83 | 2.6 | 6.1 | 0.07 | 0.15 | 0.15 | 100 | 993.9 |
| 20260506133019 | 60 | 49 | 2.6 | 6.1 | 0.07 | 0.13 | 0.13 | 100 | 994.4 |
| 20260506131521 | 60 | 80 | 2.6 | 6.1 | 0.08 | 0.11 | 0.11 | 100 | 994.4 |